Time;durP1;ratioP1;P1;durP2;ratioP2;P2;SDS_P1;SDS_P2;PMS_P1;PMS_P2;Temp;Humidity;BMP_temperature;BMP_pressure;BME280_temperature;BME280_humidity;BME280_pressure;Samples;Min_cycle;Max_cycle;Signal;HPM_P1;HPM_P2
2023/06/19 00:01:07;;;;;;;10.18;9.38;;;;;;;25.10;46.29;96782.88;4958717;28;20471;-81
2023/06/19 00:03:33;;;;;;;10.32;9.45;;;;;;;25.00;47.31;96783.44;4932034;28;20169;-79
2023/06/19 00:05:58;;;;;;;9.75;8.95;;;;;;;24.98;46.82;96778.44;4951355;28;20354;-81
2023/06/19 00:08:24;;;;;;;9.77;8.98;;;;;;;24.89;47.25;96763.78;4933832;28;20268;-81
2023/06/19 00:10:50;;;;;;;10.38;9.57;;;;;;;24.83;47.26;96765.94;4933624;28;20386;-81
2023/06/19 00:13:15;;;;;;;9.52;8.65;;;;;;;24.86;46.58;96770.56;4952596;28;20187;-81
2023/06/19 00:16:08;;;;;;;9.90;9.00;;;;;;;24.94;46.54;96766.19;4954772;28;20185;-80
2023/06/19 00:18:41;;;;;;;9.18;8.48;;;;;;;24.86;46.30;96771.38;4951856;28;20391;-80
2023/06/19 00:26:03;;;;;;;8.57;7.60;;;;;;;25.17;45.03;96803.56;4988509;28;20583;-80
2023/06/19 00:29:54;;;;;;;8.55;7.88;;;;;;;25.22;45.67;96814.75;4974387;28;20587;-80
2023/06/19 00:33:21;;;;;;;9.15;8.25;;;;;;;25.15;46.35;96822.56;4965910;28;20417;-81
2023/06/19 00:36:01;;;;;;;9.20;8.40;;;;;;;25.02;47.01;96810.50;4953446;28;20143;-80
2023/06/19 00:38:27;;;;;;;8.70;8.00;;;;;;;24.95;47.58;96810.31;4929110;28;20295;-80
2023/06/19 00:40:53;;;;;;;9.07;8.20;;;;;;;24.99;47.83;96813.84;4984733;28;20267;-81
2023/06/19 00:43:18;;;;;;;9.25;8.45;;;;;;;24.88;48.08;96810.94;4983157;28;20675;-79
2023/06/19 00:45:43;;;;;;;8.10;7.43;;;;;;;24.85;48.66;96820.41;4946122;28;20702;-80
2023/06/19 00:48:09;;;;;;;9.00;8.20;;;;;;;24.86;48.39;96827.28;4927112;28;20561;-80
2023/06/19 00:50:37;;;;;;;8.75;7.72;;;;;;;24.75;48.96;96823.59;4949999;28;20324;-81
2023/06/19 00:53:04;;;;;;;9.85;8.52;;;;;;;24.65;49.61;96834.78;4972890;28;20211;-80
2023/06/19 00:55:30;;;;;;;8.25;7.55;;;;;;;24.60;49.20;96838.47;4973491;28;20219;-80
2023/06/19 00:57:55;;;;;;;8.15;7.55;;;;;;;24.44;49.37;96832.34;4958912;28;20249;-80
2023/06/19 01:00:21;;;;;;;8.30;7.50;;;;;;;24.49;49.98;96830.19;4985860;28;20464;-79
2023/06/19 01:02:47;;;;;;;8.45;7.65;;;;;;;24.52;49.89;96830.63;4960272;28;20255;-79
2023/06/19 01:05:13;;;;;;;8.27;7.57;;;;;;;24.56;49.93;96826.22;4953195;28;20286;-79
2023/06/19 01:08:02;;;;;;;8.35;7.65;;;;;;;24.59;49.40;96833.47;4950463;28;20367;-81
2023/06/19 01:10:32;;;;;;;7.55;6.85;;;;;;;24.52;49.91;96826.06;4966643;28;20184;-80
2023/06/19 01:13:08;;;;;;;7.47;6.88;;;;;;;24.55;49.29;96816.66;4954750;28;20269;-80
2023/06/19 01:15:35;;;;;;;8.25;7.55;;;;;;;24.47;50.25;96819.13;4951708;28;20287;-81
2023/06/19 01:18:00;;;;;;;7.00;6.45;;;;;;;24.45;50.09;96816.03;4970421;28;20132;-80
2023/06/19 01:20:26;;;;;;;6.50;6.00;;;;;;;24.36;50.29;96796.03;4952747;28;20584;-81
2023/06/19 01:22:51;;;;;;;6.13;5.20;;;;;;;24.38;49.88;96781.25;4953707;28;20032;-81
2023/06/19 01:25:17;;;;;;;5.18;4.78;;;;;;;24.36;49.74;96785.41;4951441;28;20033;-81
2023/06/19 01:27:42;;;;;;;5.47;4.97;;;;;;;24.39;49.04;96779.41;4923653;28;20408;-79
2023/06/19 01:30:10;;;;;;;4.10;3.80;;;;;;;24.40;48.88;96768.41;4950487;28;20493;-80
2023/06/19 01:32:51;;;;;;;4.50;4.10;;;;;;;24.43;49.12;96770.34;4949183;28;20449;-80
2023/06/19 01:35:19;;;;;;;4.60;4.20;;;;;;;24.36;48.83;96774.75;4953351;28;20459;-80
2023/06/19 01:37:47;;;;;;;4.03;3.58;;;;;;;24.36;49.28;96785.41;4964771;28;20350;-79
2023/06/19 01:40:14;;;;;;;4.43;3.72;;;;;;;24.40;48.33;96787.03;4953560;28;20357;-79
2023/06/19 01:42:40;;;;;;;4.28;3.88;;;;;;;24.45;48.46;96804.59;4966711;28;20411;-80
2023/06/19 01:45:06;;;;;;;3.38;3.08;;;;;;;24.37;48.34;96802.88;4970829;28;20467;-82
2023/06/19 01:47:32;;;;;;;4.70;3.00;;;;;;;24.49;48.37;96806.25;4952853;28;20385;-80
2023/06/19 01:49:57;;;;;;;3.42;3.13;;;;;;;24.47;48.30;96803.16;4952937;28;20148;-79
2023/06/19 01:52:24;;;;;;;3.00;2.78;;;;;;;24.37;48.93;96806.34;4934904;28;20110;-80
2023/06/19 01:54:50;;;;;;;3.40;3.10;;;;;;;24.37;49.14;96810.88;4912425;28;20373;-80
2023/06/19 01:57:15;;;;;;;6.18;3.38;;;;;;;24.25;49.38;96806.44;4987566;28;20215;-80
2023/06/19 01:59:41;;;;;;;3.00;2.70;;;;;;;24.37;49.25;96817.00;4937767;28;20521;-80
2023/06/19 02:02:06;;;;;;;3.47;3.17;;;;;;;24.26;49.84;96818.59;4983297;28;20511;-80
2023/06/19 02:04:32;;;;;;;21.40;3.40;;;;;;;24.13;49.42;96817.91;4962290;28;20282;-80
2023/06/19 02:06:58;;;;;;;3.88;3.38;;;;;;;24.15;50.23;96810.34;4955045;28;20161;-81
2023/06/19 02:09:23;;;;;;;2.90;2.70;;;;;;;24.16;49.45;96809.22;4934894;28;20262;-81
2023/06/19 02:11:49;;;;;;;3.03;2.80;;;;;;;24.15;50.00;96821.00;4968099;28;20276;-80
2023/06/19 02:14:14;;;;;;;3.30;3.00;;;;;;;24.00;49.99;96819.84;4936101;28;20278;-81
2023/06/19 02:16:43;;;;;;;3.03;2.78;;;;;;;24.00;50.39;96833.16;4985992;28;20404;-81
2023/06/19 02:19:10;;;;;;;2.90;2.70;;;;;;;23.97;50.12;96833.06;4961534;28;20257;-80
2023/06/19 02:21:36;;;;;;;3.30;3.00;;;;;;;23.85;50.70;96833.88;4950486;28;20261;-80
2023/06/19 02:24:01;;;;;;;3.22;2.95;;;;;;;23.86;50.18;96841.53;4985651;28;20531;-80
2023/06/19 02:26:29;;;;;;;3.13;2.83;;;;;;;23.72;51.31;96833.91;4961588;28;20387;-80
2023/06/19 02:28:55;;;;;;;3.10;2.78;;;;;;;23.62;51.45;96829.09;4982243;28;20139;-80
2023/06/19 02:31:22;;;;;;;3.17;2.88;;;;;;;23.64;50.68;96842.03;4985777;28;20371;-80
2023/06/19 02:33:47;;;;;;;3.00;2.70;;;;;;;23.58;50.63;96849.47;4954615;28;20183;-82
2023/06/19 02:36:13;;;;;;;3.03;2.70;;;;;;;23.61;50.99;96848.78;4946819;28;20318;-79
2023/06/19 02:38:38;;;;;;;2.75;2.55;;;;;;;23.61;50.99;96848.03;4937017;28;20207;-80
2023/06/19 02:41:04;;;;;;;3.47;3.17;;;;;;;23.53;50.99;96853.16;4954803;28;20645;-80
2023/06/19 02:43:29;;;;;;;2.92;2.72;;;;;;;23.47;51.82;96864.34;4933875;28;20254;-81
2023/06/19 02:45:55;;;;;;;2.53;2.33;;;;;;;23.47;51.05;96861.69;4950276;28;20256;-80
2023/06/19 02:48:23;;;;;;;2.50;2.30;;;;;;;23.46;51.06;96866.22;4953756;28;20697;-80
2023/06/19 02:50:48;;;;;;;2.75;2.47;;;;;;;23.43;51.00;96874.88;4937340;28;20290;-80
2023/06/19 02:53:16;;;;;;;2.80;2.50;;;;;;;23.32;50.84;96884.41;4944016;28;20388;-81
2023/06/19 02:55:42;;;;;;;2.50;2.20;;;;;;;23.28;51.90;96878.97;4952016;28;20384;-81
2023/06/19 02:58:07;;;;;;;2.78;2.58;;;;;;;23.44;51.40;96886.25;4950707;28;20210;-80
2023/06/19 03:00:32;;;;;;;3.22;2.58;;;;;;;23.17;51.95;96883.22;4947198;28;20180;-81
2023/06/19 03:02:58;;;;;;;3.75;2.80;;;;;;;23.33;51.71;96889.38;4950883;28;20199;-80
2023/06/19 03:05:26;;;;;;;3.03;2.60;;;;;;;23.29;51.81;96887.75;4969214;28;20125;-80
2023/06/19 03:07:52;;;;;;;3.13;2.83;;;;;;;23.31;52.23;96885.53;4943495;28;20251;-80
2023/06/19 03:10:18;;;;;;;3.33;2.67;;;;;;;23.31;51.97;96885.53;4936586;28;20277;-81
2023/06/19 03:12:43;;;;;;;3.00;2.70;;;;;;;23.28;52.48;96894.16;4948946;28;20700;-80
2023/06/19 03:15:09;;;;;;;3.13;2.80;;;;;;;23.26;51.95;96891.81;4950523;28;20648;-80
2023/06/19 03:17:35;;;;;;;3.55;3.15;;;;;;;23.20;52.37;96893.16;4955925;28;20328;-81
2023/06/19 03:20:00;;;;;;;3.42;3.10;;;;;;;23.10;52.20;96888.28;4952920;28;20348;-80
2023/06/19 03:22:26;;;;;;;3.97;3.05;;;;;;;23.15;52.38;96890.72;4972232;28;20291;-81
2023/06/19 03:24:52;;;;;;;3.10;2.80;;;;;;;23.16;53.10;96890.38;4955578;28;20312;-80
2023/06/19 03:27:17;;;;;;;3.00;2.78;;;;;;;23.00;53.31;96895.56;4945348;28;20280;-80
2023/06/19 03:29:43;;;;;;;3.03;2.78;;;;;;;23.00;53.33;96906.19;4937077;28;20375;-80
2023/06/19 03:32:08;;;;;;;3.00;2.65;;;;;;;22.94;53.50;96902.19;4958888;28;20340;-80
2023/06/19 03:34:34;;;;;;;2.92;2.50;;;;;;;22.93;54.21;96905.97;4942197;28;20379;-79
2023/06/19 03:37:00;;;;;;;3.10;2.88;;;;;;;22.99;53.96;96906.53;4959750;28;20362;-80
2023/06/19 03:39:25;;;;;;;3.30;3.00;;;;;;;23.06;53.86;96913.97;4964023;28;20407;-80
2023/06/19 03:41:51;;;;;;;3.53;3.22;;;;;;;22.95;54.47;96914.38;4962340;28;20283;-81
2023/06/19 03:44:16;;;;;;;3.20;2.90;;;;;;;22.86;54.81;96916.38;4954823;28;20226;-80
2023/06/19 03:46:42;;;;;;;3.38;3.05;;;;;;;22.87;54.64;96907.28;4965734;28;20370;-81
2023/06/19 03:49:09;;;;;;;3.30;3.00;;;;;;;22.87;54.47;96907.28;4950774;28;20118;-80
2023/06/19 03:51:35;;;;;;;3.10;2.80;;;;;;;22.90;54.97;96921.81;4938747;28;20168;-80
2023/06/19 03:54:00;;;;;;;3.50;3.20;;;;;;;22.93;55.08;96918.50;4932334;28;20358;-80
2023/06/19 03:56:27;;;;;;;3.40;3.10;;;;;;;22.95;54.78;96922.34;4978299;28;20381;-80
2023/06/19 03:58:52;;;;;;;3.80;3.30;;;;;;;22.94;54.99;96920.78;4950501;28;20503;-81
2023/06/19 04:01:18;;;;;;;3.58;3.28;;;;;;;22.88;55.42;96927.44;4949683;28;20272;-80
2023/06/19 04:03:43;;;;;;;3.50;3.20;;;;;;;22.91;54.79;96923.34;4929278;28;20114;-80
2023/06/19 04:06:09;;;;;;;3.80;3.50;;;;;;;22.93;55.29;96932.53;4980814;28;20281;-80
2023/06/19 04:08:34;;;;;;;3.22;2.92;;;;;;;22.92;55.51;96941.59;4965650;28;20432;-80
2023/06/19 04:11:00;;;;;;;3.63;3.33;;;;;;;22.89;55.62;96936.16;4947841;28;20653;-80
2023/06/19 04:13:25;;;;;;;3.78;3.38;;;;;;;22.90;55.97;96941.16;4933748;28;20205;-80
2023/06/19 04:15:51;;;;;;;4.25;3.35;;;;;;;22.90;55.22;96933.19;4932164;28;20360;-80
2023/06/19 04:18:17;;;;;;;3.53;3.22;;;;;;;22.98;55.10;96937.63;4959360;28;21443;-81
2023/06/19 04:20:43;;;;;;;3.90;3.60;;;;;;;22.96;55.36;96931.88;4920571;28;20184;-80
2023/06/19 04:23:08;;;;;;;4.22;3.83;;;;;;;22.97;55.90;96938.72;4943829;28;20604;-81
2023/06/19 04:25:34;;;;;;;3.75;3.45;;;;;;;23.03;55.96;96935.84;4963375;28;20657;-81
2023/06/19 04:28:03;;;;;;;3.78;3.47;;;;;;;22.99;55.82;96928.53;4948279;28;20373;-80
2023/06/19 04:30:28;;;;;;;3.47;3.13;;;;;;;23.07;55.98;96932.22;4945687;28;20036;-80
2023/06/19 04:32:54;;;;;;;3.83;3.53;;;;;;;23.12;55.64;96939.22;4966558;28;20521;-81
2023/06/19 04:35:19;;;;;;;3.65;3.35;;;;;;;23.13;56.08;96943.41;4949981;28;20163;-80
2023/06/19 04:37:45;;;;;;;3.53;3.22;;;;;;;23.18;55.30;96937.88;4945053;28;20414;-80
2023/06/19 04:40:10;;;;;;;4.32;3.95;;;;;;;23.14;55.88;96932.44;4946923;28;20117;-80
2023/06/19 04:42:38;;;;;;;4.03;3.70;;;;;;;23.23;55.39;96935.00;4927169;28;20528;-80
2023/06/19 04:45:07;;;;;;;4.15;3.78;;;;;;;23.28;55.70;96932.13;4969289;28;20422;-80
2023/06/19 04:47:33;;;;;;;4.05;3.65;;;;;;;23.40;55.00;96933.22;4967563;28;20289;-80
2023/06/19 04:49:59;;;;;;;4.25;3.67;;;;;;;23.46;55.16;96932.66;4969530;28;20183;-80
2023/06/19 04:52:24;;;;;;;4.05;3.75;;;;;;;23.42;55.14;96933.66;4951752;28;20172;-81
2023/06/19 04:54:49;;;;;;;3.92;3.58;;;;;;;23.43;55.04;96929.91;4950856;28;20263;-80
2023/06/19 04:57:15;;;;;;;4.10;3.70;;;;;;;23.44;55.12;96934.09;4964491;28;20164;-80
2023/06/19 04:59:45;;;;;;;4.40;4.05;;;;;;;23.42;55.63;96931.00;4940328;28;20272;-80
2023/06/19 05:02:11;;;;;;;4.40;4.00;;;;;;;23.47;55.21;96933.44;4965365;28;20199;-82
2023/06/19 05:04:36;;;;;;;5.13;3.97;;;;;;;23.51;54.87;96942.28;4966471;28;20194;-81
2023/06/19 05:07:02;;;;;;;4.38;4.05;;;;;;;23.54;55.14;96944.25;4931979;28;20272;-81
2023/06/19 05:09:28;;;;;;;4.45;4.07;;;;;;;23.56;54.76;96945.50;4962814;28;20263;-82
2023/06/19 05:11:54;;;;;;;4.15;3.75;;;;;;;23.54;55.17;96953.03;4946372;28;20175;-81
2023/06/19 05:14:19;;;;;;;4.40;4.03;;;;;;;23.53;55.98;96956.03;4950518;28;20213;-81
2023/06/19 05:16:45;;;;;;;4.70;3.80;;;;;;;23.60;55.27;96960.78;4930602;28;20392;-81
2023/06/19 05:19:10;;;;;;;4.30;3.88;;;;;;;23.58;55.83;96958.44;4944839;28;20489;-81
2023/06/19 05:21:36;;;;;;;8.38;5.07;;;;;;;23.66;54.99;96962.84;4932991;28;20377;-82
2023/06/19 05:24:02;;;;;;;4.57;4.18;;;;;;;23.67;55.34;96961.75;4932271;28;20651;-84
2023/06/19 05:26:27;;;;;;;5.05;4.00;;;;;;;23.73;55.31;96959.63;4959609;28;20469;-81
2023/06/19 05:28:53;;;;;;;4.60;4.20;;;;;;;23.72;55.09;96958.84;4921600;28;20353;-83
2023/06/19 05:31:19;;;;;;;5.15;4.55;;;;;;;23.69;55.78;96951.53;4962911;28;20448;-83
2023/06/19 05:33:44;;;;;;;4.75;4.32;;;;;;;23.64;55.90;96940.38;4951407;28;20414;-82
2023/06/19 05:36:10;;;;;;;4.78;4.38;;;;;;;23.70;55.44;96942.47;4930480;28;20448;-82
2023/06/19 05:38:35;;;;;;;5.40;4.90;;;;;;;23.66;56.34;96946.91;4938023;28;20203;-83
2023/06/19 05:41:02;;;;;;;4.72;4.30;;;;;;;23.83;55.38;96950.44;4967592;28;20231;-83
2023/06/19 05:43:27;;;;;;;5.20;4.80;;;;;;;23.88;55.60;96956.28;4980647;28;20302;-82
2023/06/19 05:45:54;;;;;;;4.80;4.40;;;;;;;23.85;55.46;96945.56;4951847;28;20475;-82
2023/06/19 05:48:19;;;;;;;4.57;4.18;;;;;;;23.88;55.27;96937.69;4937675;28;20390;-82
2023/06/19 05:50:45;;;;;;;5.47;4.97;;;;;;;24.03;54.83;96938.84;4953546;28;20588;-83
2023/06/19 05:53:10;;;;;;;5.45;4.95;;;;;;;24.02;55.16;96939.19;4954836;28;20281;-82
2023/06/19 05:55:36;;;;;;;5.22;4.72;;;;;;;23.98;55.48;96949.75;4949093;28;20399;-83
2023/06/19 05:58:02;;;;;;;5.57;5.10;;;;;;;24.08;55.30;96945.84;4971620;28;20194;-83
2023/06/19 06:00:29;;;;;;;5.90;5.40;;;;;;;24.12;55.24;96955.44;4955137;28;20449;-83
2023/06/19 06:02:59;;;;;;;5.55;5.07;;;;;;;24.08;55.17;96962.56;4962937;28;20393;-83
2023/06/19 06:05:28;;;;;;;5.65;5.15;;;;;;;24.04;55.14;96961.69;4974335;28;20274;-83
2023/06/19 06:07:54;;;;;;;6.32;5.07;;;;;;;24.04;55.56;96960.91;4978317;28;20229;-83
2023/06/19 06:10:23;;;;;;;5.70;4.90;;;;;;;24.12;55.57;96963.41;4963252;28;20261;-82
2023/06/19 06:12:49;;;;;;;5.75;5.25;;;;;;;24.14;55.63;96964.97;4959259;28;20467;-83
2023/06/19 06:15:15;;;;;;;6.00;5.50;;;;;;;24.18;55.96;96971.97;4939703;28;20654;-82
2023/06/19 06:17:41;;;;;;;5.70;5.20;;;;;;;24.17;55.70;96977.63;4955553;28;20266;-82
2023/06/19 06:20:12;;;;;;;4.90;4.50;;;;;;;24.20;55.09;96984.94;4968297;28;20440;-82
2023/06/19 06:22:41;;;;;;;5.22;4.80;;;;;;;24.34;55.17;96972.00;4945978;28;20189;-83
2023/06/19 06:25:07;;;;;;;5.00;4.57;;;;;;;24.38;54.33;96966.78;4964128;28;20162;-83
2023/06/19 06:27:33;;;;;;;5.30;4.80;;;;;;;24.36;54.47;96972.44;4961425;28;20033;-82
2023/06/19 06:29:58;;;;;;;5.65;4.93;;;;;;;24.43;54.21;96972.63;4955560;28;20186;-83
2023/06/19 06:32:24;;;;;;;5.32;4.88;;;;;;;24.50;54.36;96982.69;4938600;28;20389;-82
2023/06/19 06:34:49;;;;;;;5.97;5.45;;;;;;;24.43;54.46;96975.28;4991211;28;20195;-82
2023/06/19 06:37:17;;;;;;;5.75;5.15;;;;;;;24.50;54.89;96988.00;4944388;28;20238;-85
2023/06/19 06:39:42;;;;;;;4.90;4.50;;;;;;;24.48;55.11;96996.31;4992189;28;20299;-82
2023/06/19 06:42:08;;;;;;;6.03;5.53;;;;;;;24.41;54.99;97004.13;4953705;28;20029;-83
2023/06/19 06:44:33;;;;;;;5.60;5.10;;;;;;;24.43;55.28;97012.53;4956716;28;20134;-84
2023/06/19 06:47:02;;;;;;;6.80;5.63;;;;;;;24.55;54.67;97008.31;4955589;28;20509;-83
2023/06/19 06:49:28;;;;;;;8.57;5.40;;;;;;;24.40;55.45;97010.56;4967097;28;20092;-82
2023/06/19 06:51:53;;;;;;;6.47;5.93;;;;;;;24.39;55.68;97014.34;4955224;28;20284;-82
2023/06/19 06:54:19;;;;;;;6.05;5.47;;;;;;;24.37;55.84;97011.25;4932390;28;20335;-82
2023/06/19 06:56:47;;;;;;;9.32;5.43;;;;;;;24.48;54.50;97012.28;4941119;28;20401;-81
2023/06/19 06:59:15;;;;;;;7.40;5.22;;;;;;;24.58;54.71;97019.06;4954802;28;20186;-81
2023/06/19 07:01:42;;;;;;;5.70;5.25;;;;;;;24.58;54.62;97016.38;4955668;28;20190;-83
2023/06/19 07:04:07;;;;;;;5.53;5.03;;;;;;;24.56;54.58;97020.53;4957977;28;20349;-85
2023/06/19 07:06:33;;;;;;;5.25;4.75;;;;;;;24.62;55.08;97016.47;4964118;28;20105;-83
2023/06/19 07:08:58;;;;;;;5.78;5.22;;;;;;;24.70;54.78;97023.56;4960876;28;20269;-83
2023/06/19 07:11:25;;;;;;;5.15;4.53;;;;;;;24.79;54.67;97020.72;5034782;22;20024;-82
2023/06/19 07:13:50;;;;;;;5.75;5.22;;;;;;;24.90;53.74;97027.13;4983964;28;20355;-83
2023/06/19 07:16:16;;;;;;;5.40;4.95;;;;;;;24.91;53.93;97022.56;4972156;28;20172;-83
2023/06/19 07:18:42;;;;;;;7.45;5.55;;;;;;;25.01;53.74;97027.38;4984348;23;20583;-83
2023/06/19 07:21:12;;;;;;;4.97;4.57;;;;;;;25.28;53.66;97025.03;4948008;28;20189;-83
2023/06/19 07:23:39;;;;;;;6.15;5.00;;;;;;;25.02;53.59;97026.28;4938457;28;20161;-83
2023/06/19 07:26:05;;;;;;;10.55;5.55;;;;;;;25.15;52.96;97037.63;4940079;28;20021;-86
2023/06/19 07:28:30;;;;;;;7.18;4.82;;;;;;;25.17;53.44;97033.50;4937505;28;20252;-83
2023/06/19 07:30:56;;;;;;;5.20;4.80;;;;;;;25.26;52.64;97032.56;4931801;28;20367;-83
2023/06/19 07:33:21;;;;;;;5.53;5.03;;;;;;;25.23;52.82;97034.00;4950633;28;20327;-82
2023/06/19 07:35:48;;;;;;;5.45;4.93;;;;;;;25.32;53.32;97047.19;5419022;22;20322;-83
2023/06/19 07:38:14;;;;;;;5.38;4.88;;;;;;;25.31;52.67;97048.28;4986493;28;20426;-83
2023/06/19 07:40:40;;;;;;;6.20;4.95;;;;;;;25.49;52.79;97054.84;4985986;28;20101;-83
2023/06/19 07:43:06;;;;;;;5.22;4.70;;;;;;;25.22;53.04;97040.44;5071991;22;20350;-82
2023/06/19 07:48:01;;;;;;;5.88;5.07;;;;;;;25.64;52.61;97057.84;4983461;28;20215;-84
2023/06/19 07:50:26;;;;;;;5.15;4.75;;;;;;;25.87;51.41;97050.72;4962831;28;20170;-84
2023/06/19 07:52:52;;;;;;;5.85;5.35;;;;;;;25.73;51.81;97045.09;4957447;28;20581;-84
2023/06/19 07:55:18;;;;;;;5.57;5.03;;;;;;;25.91;51.41;97056.16;5213907;23;20052;-83
2023/06/19 07:57:43;;;;;;;5.18;4.78;;;;;;;26.01;51.10;97057.53;4967115;28;20348;-84
2023/06/19 08:00:12;;;;;;;5.85;5.30;;;;;;;26.02;50.87;97062.53;4947730;28;20096;-84
2023/06/19 08:02:40;;;;;;;5.93;5.43;;;;;;;26.08;51.65;97060.34;5080115;22;20399;-83
2023/06/19 08:05:09;;;;;;;5.35;4.90;;;;;;;26.23;50.95;97062.19;4982282;28;20271;-84
2023/06/19 08:07:35;;;;;;;5.85;5.35;;;;;;;26.34;51.48;97057.88;4996969;28;20256;-82
2023/06/19 08:10:01;;;;;;;5.40;5.05;;;;;;;26.43;50.58;97048.88;4986596;28;20260;-83
2023/06/19 08:12:26;;;;;;;5.78;5.20;;;;;;;26.70;49.24;97057.81;4999432;28;20265;-85
2023/06/19 08:14:52;;;;;;;5.45;4.95;;;;;;;26.69;49.19;97056.28;4969570;28;20191;-83
2023/06/19 08:17:17;;;;;;;5.43;5.03;;;;;;;26.57;50.36;97053.72;5042080;23;20528;-83
2023/06/19 08:19:43;;;;;;;5.20;4.70;;;;;;;26.56;50.06;97034.25;4948850;28;20446;-83
2023/06/19 08:22:09;;;;;;;5.20;4.80;;;;;;;26.96;49.07;97043.78;4954609;28;20387;-84
2023/06/19 08:24:41;;;;;;;4.97;4.53;;;;;;;27.52;48.45;97065.72;4980283;28;20105;-84
2023/06/19 08:27:07;;;;;;;4.75;4.35;;;;;;;27.78;47.07;97049.69;4981489;28;20279;-83
2023/06/19 08:29:33;;;;;;;5.20;4.80;;;;;;;27.91;45.36;97057.50;4966601;28;20085;-84
2023/06/19 08:31:58;;;;;;;4.93;4.50;;;;;;;27.95;46.25;97072.53;4994403;28;20502;-84
2023/06/19 08:34:24;;;;;;;4.70;4.25;;;;;;;28.08;45.94;97053.56;4962121;28;20507;-84
2023/06/19 08:36:50;;;;;;;4.60;4.25;;;;;;;28.05;46.18;97068.44;4976558;28;20476;-85
2023/06/19 08:39:15;;;;;;;4.97;4.50;;;;;;;27.86;46.79;97061.25;4964071;28;20296;-84
2023/06/19 08:41:42;;;;;;;5.50;4.40;;;;;;;28.37;44.33;97070.75;4967390;28;20085;-84
2023/06/19 08:44:08;;;;;;;5.40;4.90;;;;;;;28.31;45.33;97059.59;4988793;28;20717;-84
2023/06/19 08:46:34;;;;;;;4.93;4.53;;;;;;;28.42;44.82;97083.06;4960680;28;20233;-84
2023/06/19 08:49:00;;;;;;;4.70;4.18;;;;;;;28.55;44.00;97061.06;4974187;28;20078;-85
2023/06/19 08:51:30;;;;;;;4.63;4.22;;;;;;;28.81;44.60;97058.66;4979027;28;20282;-86
2023/06/19 08:54:00;;;;;;;4.72;4.40;;;;;;;28.95;44.29;97053.44;4967364;28;20335;-85
2023/06/19 08:56:26;;;;;;;4.93;4.53;;;;;;;29.34;42.05;97047.69;4992329;28;20032;-85
2023/06/19 08:58:51;;;;;;;4.80;4.47;;;;;;;29.57;41.40;97039.41;4965355;28;20194;-85
2023/06/19 09:01:19;;;;;;;4.57;4.22;;;;;;;29.32;42.54;97058.78;4956804;28;20335;-83
2023/06/19 09:03:46;;;;;;;4.32;4.03;;;;;;;29.54;42.06;97037.47;4960890;28;20182;-86
2023/06/19 09:06:15;;;;;;;4.32;3.92;;;;;;;29.92;42.19;97048.88;4967030;28;20263;-85
2023/06/19 09:08:41;;;;;;;4.25;3.92;;;;;;;30.15;41.33;97061.25;4986940;28;20078;-85
2023/06/19 09:11:07;;;;;;;4.18;3.88;;;;;;;30.26;39.76;97067.44;4954971;28;20139;-84
2023/06/19 09:13:32;;;;;;;3.60;3.30;;;;;;;29.99;39.86;97054.28;4985637;28;20029;-84
2023/06/19 09:16:08;;;;;;;3.60;3.40;;;;;;;30.34;39.43;97062.88;4981884;28;20347;-85
2023/06/19 09:18:47;;;;;;;3.28;2.67;;;;;;;30.22;38.84;97066.66;4956829;28;20359;-85
2023/06/19 09:21:18;;;;;;;3.75;3.45;;;;;;;30.36;39.19;97053.31;4977142;28;20297;-85
2023/06/19 09:23:44;;;;;;;3.58;3.30;;;;;;;30.43;38.18;97056.03;4964674;28;20391;-84
2023/06/19 09:26:10;;;;;;;3.33;3.03;;;;;;;30.39;38.39;97067.91;4970264;28;20214;-86
2023/06/19 09:28:42;;;;;;;3.53;3.33;;;;;;;30.27;38.07;97054.78;4961307;28;20033;-85
2023/06/19 09:31:07;;;;;;;3.92;3.20;;;;;;;30.39;38.62;97067.91;4968292;28;20239;-85
2023/06/19 09:33:34;;;;;;;3.70;3.50;;;;;;;30.25;38.50;97055.91;4962985;28;20188;-85
2023/06/19 09:36:01;;;;;;;3.63;3.38;;;;;;;30.29;39.26;97039.81;4965628;28;20270;-84
2023/06/19 09:38:30;;;;;;;3.45;3.25;;;;;;;30.62;37.69;97067.59;4990111;28;20307;-85
2023/06/19 09:40:58;;;;;;;3.28;3.03;;;;;;;30.51;38.17;97034.56;4966800;28;20032;-86
2023/06/19 09:43:25;;;;;;;2.72;2.63;;;;;;;30.51;36.43;97045.31;4941313;28;20319;-85
2023/06/19 09:45:54;;;;;;;3.08;2.80;;;;;;;30.57;36.90;97049.94;4963945;28;20347;-86
2023/06/19 09:48:24;;;;;;;2.85;2.55;;;;;;;30.29;38.29;97052.50;4960491;28;20253;-86
2023/06/19 09:50:54;;;;;;;2.80;2.60;;;;;;;30.65;36.44;97048.03;4959233;28;20459;-86
2023/06/19 09:53:20;;;;;;;3.45;2.22;;;;;;;30.78;35.65;97054.59;4974135;28;20285;-86
2023/06/19 09:55:48;;;;;;;2.75;2.42;;;;;;;30.75;37.66;97031.16;4976776;28;20184;-84
2023/06/19 09:58:14;;;;;;;2.63;2.45;;;;;;;31.12;36.30;97050.81;4958371;28;20277;-85
2023/06/19 10:00:40;;;;;;;2.67;2.47;;;;;;;31.03;36.03;97037.75;4992389;28;20199;-86
2023/06/19 10:03:12;;;;;;;2.92;2.72;;;;;;;31.33;35.15;97055.44;4976712;28;20175;-85
2023/06/19 10:05:37;;;;;;;3.10;2.90;;;;;;;31.32;35.70;97051.97;4966635;28;20257;-85
2023/06/19 10:08:04;;;;;;;2.97;2.67;;;;;;;31.46;34.96;97045.06;4964884;28;20517;-86
2023/06/19 10:10:30;;;;;;;2.70;2.50;;;;;;;31.26;35.27;97037.38;4962854;28;20502;-85
2023/06/19 10:12:58;;;;;;;2.50;2.35;;;;;;;31.47;35.75;97038.53;4956116;28;20039;-86
2023/06/19 10:15:28;;;;;;;2.70;2.50;;;;;;;31.83;35.36;97035.81;4969824;28;20183;-85
2023/06/19 10:18:00;;;;;;;2.90;2.70;;;;;;;32.41;33.99;97052.56;4973997;28;20326;-87
2023/06/19 10:20:35;;;;;;;3.92;3.00;;;;;;;32.52;33.72;97050.59;4973513;28;20381;-85
2023/06/19 10:23:10;;;;;;;3.55;3.25;;;;;;;32.47;33.60;97051.78;4948993;28;20338;-85
2023/06/19 10:25:38;;;;;;;2.97;2.78;;;;;;;32.35;33.86;97046.03;4972408;28;20222;-86
2023/06/19 10:28:06;;;;;;;3.33;3.13;;;;;;;32.36;33.42;97026.78;4982833;28;20302;-86
2023/06/19 10:30:34;;;;;;;2.83;2.60;;;;;;;32.32;33.52;97036.84;4984756;28;20147;-87
2023/06/19 10:33:02;;;;;;;3.20;3.00;;;;;;;32.27;33.16;97035.31;4968979;28;20155;-86
2023/06/19 10:35:28;;;;;;;2.70;2.60;;;;;;;32.15;34.07;97033.06;4979508;28;20167;-85
2023/06/19 10:37:54;;;;;;;3.03;2.75;;;;;;;31.84;33.91;97019.28;4968003;28;20581;-85
2023/06/19 10:40:19;;;;;;;3.05;2.85;;;;;;;31.74;34.79;97023.50;4973419;28;20508;-84
2023/06/19 10:42:45;;;;;;;2.95;2.55;;;;;;;31.91;34.13;97024.63;4949846;28;20038;-86
2023/06/19 10:45:13;;;;;;;4.63;2.80;;;;;;;31.79;34.98;97030.44;4984844;28;20350;-87
2023/06/19 10:47:39;;;;;;;3.47;3.20;;;;;;;31.43;34.94;97026.97;4984888;28;20321;-87
2023/06/19 10:50:10;;;;;;;3.08;2.78;;;;;;;31.53;36.11;97012.78;4994503;28;20218;-87
2023/06/19 10:52:35;;;;;;;3.65;3.35;;;;;;;31.98;34.76;97026.53;4975182;28;20287;-85
2023/06/19 10:55:03;;;;;;;3.60;3.30;;;;;;;32.09;34.74;97034.59;4972568;28;20150;-85
2023/06/19 10:57:30;;;;;;;3.60;3.33;;;;;;;32.04;34.90;97010.72;4975883;28;20578;-85
2023/06/19 10:59:56;;;;;;;3.85;3.50;;;;;;;31.92;35.03;97017.31;4967689;28;20091;-86
2023/06/19 11:02:22;;;;;;;3.83;3.63;;;;;;;31.91;34.17;97015.78;4938840;28;20441;-86
2023/06/19 11:04:48;;;;;;;3.50;3.30;;;;;;;31.88;34.59;97017.31;4987822;28;20029;-86
2023/06/19 11:07:14;;;;;;;3.70;3.40;;;;;;;31.69;34.83;97021.22;5000135;28;20227;-84
2023/06/19 11:09:40;;;;;;;4.15;3.55;;;;;;;31.39;35.81;97035.06;4960749;28;20378;-86
2023/06/19 11:12:08;;;;;;;4.10;3.80;;;;;;;30.95;36.54;97028.91;5000006;28;20301;-84
2023/06/19 11:14:39;;;;;;;6.22;4.13;;;;;;;30.70;36.85;97020.78;4961123;28;20224;-83
2023/06/19 11:17:09;;;;;;;3.83;3.53;;;;;;;30.54;38.17;97028.44;4986809;28;20441;-84
2023/06/19 11:19:35;;;;;;;4.03;3.72;;;;;;;30.76;37.48;97035.38;4986502;28;20094;-85
2023/06/19 11:22:04;;;;;;;4.35;3.97;;;;;;;30.91;37.59;97024.66;4995433;28;20169;-85
2023/06/19 11:24:29;;;;;;;4.57;4.18;;;;;;;31.15;36.86;97017.78;4940347;28;20102;-84
2023/06/19 11:26:58;;;;;;;4.53;4.13;;;;;;;31.21;37.05;97028.94;4962799;28;20173;-87
2023/06/19 11:29:29;;;;;;;4.50;4.20;;;;;;;31.21;36.77;97012.81;4986635;28;20117;-83
2023/06/19 11:32:10;;;;;;;4.55;4.15;;;;;;;31.14;36.85;97017.03;4966943;28;20257;-84
2023/06/19 11:34:36;;;;;;;4.43;4.10;;;;;;;31.01;38.13;97013.16;4973730;28;20243;-83
2023/06/19 11:37:11;;;;;;;4.68;4.38;;;;;;;31.18;37.49;97009.69;4976554;28;20245;-84
2023/06/19 11:39:37;;;;;;;4.55;4.15;;;;;;;31.46;37.19;97010.88;4983794;28;20279;-85
2023/06/19 11:42:03;;;;;;;4.07;3.78;;;;;;;31.77;36.69;97008.50;4972189;28;20471;-85